• Join FlightAware (Why Join?)
  • Login
  • US Flag 
12:58PM EDT


 

Airport Tracker/Info


-or-


 

Live Flight TrackerFlight Track Log ✈ TAM3891 ✈ 27-May-2013 ✈ SBFZ / FOR - SBRF / REC

Flight Track Log - Related Links

Times and Time Zones

All times are in EDT time to prevent confusion due to time zone crossing. See the TAM3891 flight status page for this flight to view local times or setup timezone preferences in your user account.

Time Position Orientation Groundspeed Altitude Reporting Facility
EDT Latitude Longitude Course Direction KTS MPH feet Rate Location/Type
08:24PM -3.7770 -38.5410 219° Southwest 22 25  Level FlightAware
08:25PM -3.7770 -38.5420 270° West 30 35 360 Level FlightAware
08:25PM -3.7760 -38.5440 297° West 24 28 420 Level FlightAware
08:26PM -3.7750 -38.5440 360° North 28 32 540 Level FlightAware
08:26PM -3.7740 -38.5440 360° North 28 32 600 Level FlightAware
08:26PM -3.7730 -38.5430 45° Northeast 19 22 780 Level FlightAware
08:27PM -3.7740 -38.5420 135° Southeast 45 52 900 Level FlightAware
08:27PM -3.7780 -38.5280 106° East 160 184 1,380 Level FlightAware
08:28PM -3.7830 -38.5070 103° East 164 189 1,300 1,980 Climbing FlightAware
08:28PM -3.7890 -38.4840 105° East 206 237 1,900 1,800 Climbing FlightAware
08:29PM -3.7970 -38.4550 105° East 238 274 3,000 2,640 Climbing FlightAware
08:29PM -3.8050 -38.4250 105° East 249 287 4,400 3,060 Climbing FlightAware
08:29PM -3.8140 -38.3920 105° East 256 295 5,900 3,180 Climbing FlightAware
08:30PM -3.8250 -38.3630 111° Southeast 262 302 7,300 3,300 Climbing FlightAware
08:30PM -3.8340 -38.3540 135° Southeast 264 304 8,000 2,760 Climbing FlightAware
08:30PM -3.8560 -38.3470 162° South 278 320 8,700 2,580 Climbing FlightAware
08:31PM -3.9130 -38.3600 193° South 302 348 10,600 1,920 Climbing FlightAware
08:32PM -3.9780 -38.3760 194° South 351 404 11,500 1,740 Climbing FlightAware
08:33PM -4.0420 -38.3920 194° South 362 417 13,100 2,520 Climbing FlightAware
08:33PM -4.1140 -38.4100 194° South 361 415 15,100 2,280 Climbing FlightAware
08:34PM -4.1810 -38.4260 193° South 377 434 16,300 1,620 Climbing FlightAware
08:35PM -4.2520 -38.4400 191° South 395 455 17,300 1,800 Climbing FlightAware
08:35PM -4.3040 -38.4240 163° South 389 448 18,500 2,100 Climbing FlightAware
08:36PM -4.3720 -38.3850 150° Southeast 396 456 19,900 2,640 Climbing FlightAware
08:36PM -4.4350 -38.3490 150° Southeast 370 426 22,200 2,520 Climbing FlightAware
08:37PM -4.5010 -38.3110 150° Southeast 375 432 23,500 1,260 Climbing FlightAware
08:38PM -4.5620 -38.2760 150° Southeast 396 456 24,000 720 Climbing FlightAware
08:39PM -4.6320 -38.2370 151° Southeast 421 484 24,500 900 Climbing FlightAware
08:39PM -4.7020 -38.1960 150° Southeast 431 496 25,300 1,500 Climbing FlightAware
08:40PM -4.7810 -38.1510 150° Southeast 428 493 26,700 2,340 Climbing FlightAware
08:41PM -4.8490 -38.1120 150° Southeast 401 461 28,700 2,160 Climbing FlightAware
08:41PM -4.9160 -38.0740 151° Southeast 405 466 29,700 1,140 Climbing FlightAware
08:42PM -4.9840 -38.0350 150° Southeast 418 481 30,300 1,560 Climbing FlightAware
08:43PM -5.0580 -37.9930 151° Southeast 400 460 32,000 1,500 Climbing FlightAware
08:43PM -5.1230 -37.9550 150° Southeast 413 475 32,500 480 Climbing FlightAware
08:44PM -5.1950 -37.9140 150° Southeast 433 498 32,700 300 Climbing FlightAware
08:45PM -5.2700 -37.8710 150° Southeast 441 507 33,000 180 Climbing FlightAware
08:46PM -5.3400 -37.8310 150° Southeast 441 507 33,000  Level FlightAware
08:46PM -5.4190 -37.7860 150° Southeast 438 504 33,000  Level FlightAware
08:47PM -5.4880 -37.7460 150° Southeast 437 503 33,000  Level FlightAware
08:48PM -5.5670 -37.7000 150° Southeast 438 504 33,000  Level FlightAware
08:48PM -5.6410 -37.6580 151° Southeast 439 505 33,000  Level FlightAware
08:49PM -5.7110 -37.6180 150° Southeast 439 505 33,000  Level FlightAware
08:50PM -5.7890 -37.5730 150° Southeast 439 505 33,000  Level FlightAware
08:50PM -5.8610 -37.5320 150° Southeast 440 506 33,000  Level FlightAware
08:51PM -5.9380 -37.4880 150° Southeast 429 494 33,000  Level FlightAware
08:52PM -6.0060 -37.4460 148° Southeast 404 465 33,000  Level FlightAware
08:53PM -6.0720 -37.4020 146° Southeast 399 459 33,000  Level FlightAware
08:53PM -6.1310 -37.3630 147° Southeast 402 463 33,000  Level FlightAware
08:54PM -6.2030 -37.3140 146° Southeast 404 465 33,000  Level FlightAware
08:55PM -6.2650 -37.2730 147° Southeast 402 463 33,000  Level FlightAware
08:55PM -6.3260 -37.2320 146° Southeast 414 476 33,000  Level FlightAware
08:56PM -6.4200 -37.1690 146° Southeast 430 495 33,000  Level FlightAware
08:57PM -6.4920 -37.1210 146° Southeast 419 482 33,000  Level FlightAware
08:58PM -6.5620 -37.0740 146° Southeast 404 465 33,000  Level FlightAware
08:59PM -6.6450 -37.0190 147° Southeast 407 468 33,000  Level FlightAware
08:59PM -6.7140 -36.9720 146° Southeast 407 468 33,000  Level FlightAware
09:00PM -6.7690 -36.9350 146° Southeast 407 468 33,000  Level FlightAware
09:01PM -6.8450 -36.8840 146° Southeast 405 466 33,000  Level FlightAware
09:01PM -6.8930 -36.8510 146° Southeast 405 466 33,000  Level FlightAware
09:02PM -6.9560 -36.8080 146° Southeast 405 466 33,000  Level FlightAware
09:03PM -7.0040 -36.7760 147° Southeast 405 466 33,000  Level FlightAware
09:03PM -7.0910 -36.7190 147° Southeast 407 468 33,000  Level FlightAware
09:04PM -7.1650 -36.6690 146° Southeast 407 468 33,000  Level FlightAware
09:05PM -7.2140 -36.6360 146° Southeast 407 468 33,000  Level FlightAware
09:06PM -7.2950 -36.5820 147° Southeast 407 468 33,000  Level FlightAware
09:06PM -7.3420 -36.5490 145° Southeast 407 468 33,000  Level FlightAware
09:07PM -7.4060 -36.5060 146° Southeast 407 468 33,000 -1,200 Level FlightAware
09:08PM -7.5030 -36.4420 147° Southeast 423 487 31,200 -2,280 Descending FlightAware
09:08PM -7.5620 -36.4020 146° Southeast 418 481 30,000 -1,980 Descending FlightAware
09:09PM -7.6350 -36.3520 146° Southeast 407 468 28,500 -1,500 Descending FlightAware
09:10PM -7.7100 -36.3020 147° Southeast 402 463 27,600 -1,920 Descending FlightAware
09:11PM -7.8040 -36.2390 146° Southeast 361 415 25,000 -2,220 Descending FlightAware
09:12PM -7.8580 -36.2020 146° Southeast 357 411 23,800 -1,800 Descending FlightAware
09:12PM -7.9170 -36.1620 146° Southeast 363 418 22,500 -1,320 Descending FlightAware
09:13PM -7.9650 -36.1150 136° Southeast 359 413 22,000 -1,740 Descending FlightAware
09:14PM -7.9460 -36.0530 73° East 346 398 20,500 -2,220 Descending FlightAware
09:14PM -7.9380 -35.9960 82° East 339 390 19,500 -1,500 Descending FlightAware
09:15PM -7.9300 -35.9310 83° East 329 379 18,500 -1,560 Descending FlightAware
09:16PM -7.9210 -35.8670 82° East 325 374 17,500 -1,020 Descending FlightAware
09:16PM -7.9180 -35.8070 87° East 322 371 17,100 -1,920 Descending FlightAware
09:17PM -7.9240 -35.7390 95° East 327 376 14,800 -2,460 Descending FlightAware
09:18PM -7.9260 -35.6770 92° East 318 366 13,800 -1,500 Descending FlightAware
09:18PM -7.9290 -35.6200 93° East 308 354 12,800 -1,440 Descending FlightAware
09:19PM -7.9320 -35.5520 93° East 298 343 11,700 -1,440 Descending FlightAware
09:20PM -7.9340 -35.5000 92° East 292 336 10,800 -1,140 Descending FlightAware
09:21PM -7.9360 -35.4370 92° East 278 320 10,100 -960 Descending FlightAware
09:21PM -7.9370 -35.4220 94° East 271 312 9,900 -1,260 Descending FlightAware
09:21PM -7.9390 -35.3810 93° East 267 307 9,200 -1,440 Descending FlightAware
09:22PM -7.9400 -35.3510 92° East 265 305 8,600 -1,740 Descending FlightAware
09:22PM -7.9410 -35.3170 92° East 264 304 7,700 -1,800 Descending FlightAware
09:23PM -7.9430 -35.2780 93° East 272 313 6,800 -1,740 Descending FlightAware
09:23PM -7.9440 -35.2480 92° East 271 312 6,100 -1,620 Descending FlightAware
09:24PM -7.9450 -35.2150 92° East 266 306 5,500 -1,620 Descending FlightAware
09:24PM -7.9470 -35.1750 93° East 262 302 4,600 -1,680 Descending FlightAware
09:24PM -7.9480 -35.1450 92° East 260 299 4,000 -1,680 Descending FlightAware
09:25PM -7.9490 -35.1090 92° East 259 298 3,100 -1,620 Descending FlightAware
09:25PM -7.9510 -35.0780 94° East 254 292 2,500 -1,200 Descending FlightAware
09:26PM -7.9510 -35.0600 90° East 246 283 2,300 -660 Descending FlightAware
09:26PM -7.9530 -35.0250 93° East 224 258 2,000 -360 Descending FlightAware
09:27PM -7.9540 -35.0020 93° East 199 229 2,000  Level FlightAware
09:27PM -7.9640 -34.9780 113° Southeast 172 198 2,000  Level FlightAware
09:27PM -7.9700 -34.9750 154° Southeast 170 196 2,000  Level FlightAware
09:28PM -7.9830 -34.9710 163° South 170 196 2,000  Level FlightAware
09:28PM -7.9980 -34.9660 162° South 142 163 2,000  Level FlightAware
09:28PM -8.0080 -34.9620 158° South 132 152 2,000 -420 Level FlightAware
09:29PM -8.0270 -34.9560 163° South 131 151 1,700 -600 Descending FlightAware
09:29PM -8.0400 -34.9520 163° South 130 150 1,500 -660 Descending FlightAware
09:30PM -8.0540 -34.9470 161° South 130 150 1,200 -780 Descending FlightAware
09:30PM -8.0730 -34.9410 163° South 130 150 800 -660 Descending FlightAware
09:31PM -8.0860 -34.9360 159° South 129 148 600 -660 Descending FlightAware
09:31PM -8.1040 -34.9310 165° South 128 147 200 -780 Descending FlightAware
09:31PM -8.1090 -34.9290 158° South 131 151 100 -780 Descending FlightAware
09:32PM -8.1210 -34.9250 162° South 129 148 -300 Descending FlightAware
09:32PM -8.1140 -34.9140 57° Northeast 129 148  Level FlightAware
09:33PM -8.1320 -34.9210 201° Southwest  Level FlightAware
09:35PM -8.1268 -34.9230 339° North  Level Estimated
09:36PM -8.1268 -34.9230 166° South  Level Estimated
09:37PM -8.1268 -34.9230 166° South  Level Estimated
09:38PM -8.1268 -34.9230 166° South  Level Estimated
09:39PM -8.1268 -34.9230 166° South  Level Estimated
09:40PM -8.1268 -34.9230 166° South  Level Estimated
09:41PM -8.1268 -34.9230 166° South  Level Estimated
09:42PM -8.1268 -34.9230 166° South  Level Estimated